Kezdőlap
METAR-TAF:

METAR-TAF

Repülőterek :

Szatmárnémeti, Románia

földrajzi szélesség: 47-48N, földrajzi hosszúság: 022-53E, magasság: 123 m

Jelenlegi meteorológiai megfigyelések

A jelentés 27 perccel ezelõtt készült, 12:00 UTC
Kelet-délkeleti szél 4 kt, keleti és dél-délkeleti között változik
Hőmérséklet 10°C
Páratartalom 57%
Légköri nyomás 1016 hPa
Látótávolság 10 km, vagy több
felhőtlen 1500 m magasságban, és nincs gomolyfelhõ

METAR: LRSM 151200Z 12004KT 090V150 CAVOK 10/02 Q1016 R01/29//95

Idő: 14:27 (12:27 UTC)

Előrejelzés

A jelentés 1 órával és 27 perccel ezelõtt készült, 11:00 UTC
Az előrejelzés 15-én 12 óra UTC és 15-én 21 óra UTC között érvényes
Keleti szél 6 kt
Látótávolság 10 km, vagy több
felhőtlen 1500 m magasságban, és nincs gomolyfelhõ

TAF: LRSM 151100Z 1512/1521 08006KT CAVOK

Meteorológiai megfigyelések és előrejelzések több, mint 4000 repülőtéren (METAR és TAF jelentéseket).

A térképen piros és sárga pontok jelzik az elérhető meteorológiai állomásokat.

Mozgassa az egeret a pont fölött, hogy megjelenjen az állomás neve.

Azután kattintson az időjárási megfigyelések és előrejelzések megtekintéséhez.

A térkép megváltoztatása: kattintson a fekete keresztel jelölt zöld gombra ráközelítéshez, a vonallal jelölt zöld gombra távolításhoz, vagy a zöld nyilakra a szomszédos térképek eléréséhez.


METAR-TAF: